Time;durP1;ratioP1;P1;durP2;ratioP2;P2;SDS_P1;SDS_P2;PMS_P1;PMS_P2;Temp;Humidity;BMP_temperature;BMP_pressure;BME280_temperature;BME280_humidity;BME280_pressure;Samples;Min_cycle;Max_cycle;Signal;HPM_P1;HPM_P2
2023/04/07 00:00:48;;;;;;;55.70;26.03;;;6.20;99.90;;;;;;5015362;28;20457;-91
2023/04/07 00:03:15;;;;;;;50.20;25.90;;;6.00;99.90;;;;;;5027120;28;20524;-91
2023/04/07 00:05:42;;;;;;;47.87;25.13;;;6.00;99.90;;;;;;5032323;28;21107;-90
2023/04/07 00:08:09;;;;;;;50.40;25.80;;;6.00;99.90;;;;;;5004784;28;20485;-90
2023/04/07 00:10:37;;;;;;;45.33;22.97;;;6.00;99.90;;;;;;5003975;28;20492;-90
2023/04/07 00:13:03;;;;;;;46.63;24.00;;;6.00;99.90;;;;;;5005448;28;20525;-89
2023/04/07 00:15:30;;;;;;;50.33;26.20;;;6.00;99.90;;;;;;5010529;28;20981;-89
2023/04/07 00:17:57;;;;;;;53.20;28.43;;;6.00;99.90;;;;;;5004613;28;20538;-90
2023/04/07 00:20:24;;;;;;;58.07;26.57;;;6.00;99.90;;;;;;5014448;28;20456;-90
2023/04/07 00:22:50;;;;;;;48.80;26.23;;;6.00;99.90;;;;;;5007014;28;20465;-90
2023/04/07 00:25:17;;;;;;;55.77;27.80;;;6.00;99.90;;;;;;5006962;28;20454;-91
2023/04/07 00:27:45;;;;;;;52.53;26.90;;;5.90;99.90;;;;;;5007918;28;20488;-90
2023/04/07 00:30:14;;;;;;;55.17;28.03;;;5.90;99.90;;;;;;5007235;28;20970;-89
2023/04/07 00:32:40;;;;;;;53.00;28.27;;;5.90;99.90;;;;;;5014720;28;20460;-90
2023/04/07 00:35:08;;;;;;;52.43;27.60;;;5.90;99.90;;;;;;5007323;28;20462;-91
2023/04/07 00:37:34;;;;;;;54.67;26.33;;;5.90;99.90;;;;;;5007066;28;20470;-91
2023/04/07 00:40:02;;;;;;;56.17;29.10;;;6.00;99.90;;;;;;4998755;28;20460;-90
2023/04/07 00:42:29;;;;;;;56.80;28.73;;;6.00;99.90;;;;;;5007686;28;20462;-89
2023/04/07 00:44:57;;;;;;;54.03;28.00;;;6.00;99.90;;;;;;5006913;28;20458;-90
2023/04/07 00:47:24;;;;;;;53.53;25.77;;;6.00;99.90;;;;;;5007264;28;20479;-91
2023/04/07 00:52:32;;;;;;;61.87;27.13;;;6.00;99.90;;;;;;5152040;27;20539;-89
2023/04/07 00:55:00;;;;;;;51.00;26.30;;;6.00;99.90;;;;;;5152018;27;20488;-91
2023/04/07 00:57:26;;;;;;;49.00;26.90;;;5.90;99.90;;;;;;5159601;27;21035;-90
2023/04/07 00:59:55;;;;;;;50.90;26.20;;;6.00;99.90;;;;;;5172351;27;20458;-89
2023/04/07 01:02:27;;;;;;;57.20;26.63;;;6.00;99.90;;;;;;5172878;27;20451;-90
2023/04/07 01:05:03;;;;;;;50.30;26.40;;;6.00;99.90;;;;;;5172369;27;20460;-88
2023/04/07 01:07:35;;;;;;;57.60;28.63;;;6.00;99.90;;;;;;5172282;27;20472;-90
2023/04/07 01:10:05;;;;;;;48.70;25.90;;;6.00;99.90;;;;;;5172472;27;20467;-91
2023/04/07 01:12:39;;;;;;;56.47;28.17;;;6.00;99.90;;;;;;5171998;27;20693;-91
2023/04/07 01:15:09;;;;;;;44.17;24.07;;;6.00;99.90;;;;;;5172329;27;20452;-91
2023/04/07 01:17:39;;;;;;;54.77;26.33;;;6.00;99.90;;;;;;5172005;27;20479;-92
2023/04/07 01:20:10;;;;;;;52.83;22.70;;;6.00;99.90;;;;;;5171991;27;20471;-91
2023/04/07 01:26:17;;;;;;;46.50;24.03;;;5.90;99.90;;;;;;5169450;27;20399;-91
2023/04/07 01:28:57;;;;;;;51.67;25.30;;;5.90;99.90;;;;;;5172902;27;20446;-91
2023/04/07 01:31:26;;;;;;;44.60;23.70;;;6.00;99.90;;;;;;5176094;27;20480;-91
2023/04/07 01:33:55;;;;;;;46.60;25.43;;;5.90;99.90;;;;;;5164495;27;20860;-89
2023/04/07 01:36:22;;;;;;;50.57;26.23;;;5.90;99.90;;;;;;5172449;27;20941;-91
2023/04/07 01:38:51;;;;;;;40.63;20.57;;;5.90;99.90;;;;;;5172692;27;20527;-91
2023/04/07 01:41:19;;;;;;;47.03;24.47;;;6.00;99.90;;;;;;5162419;27;20442;-91
2023/04/07 01:43:47;;;;;;;51.50;25.87;;;6.00;99.90;;;;;;5169790;27;20450;-90
2023/04/07 01:46:14;;;;;;;50.57;25.43;;;5.90;99.90;;;;;;5171471;27;21017;-91
2023/04/07 01:48:42;;;;;;;48.63;26.37;;;5.90;99.90;;;;;;5172496;27;20454;-91
2023/04/07 01:51:16;;;;;;;46.47;24.10;;;5.90;99.90;;;;;;5171820;27;20480;-91
2023/04/07 01:53:43;;;;;;;44.67;22.90;;;5.90;99.90;;;;;;5171419;27;20540;-91
2023/04/07 01:56:10;;;;;;;49.23;23.43;;;5.90;99.90;;;;;;5171491;27;20461;-92
2023/04/07 01:58:36;;;;;;;47.40;23.13;;;5.80;99.90;;;;;;5171675;27;20551;-91
2023/04/07 02:01:03;;;;;;;44.20;22.70;;;5.80;99.90;;;;;;5172058;27;20644;-91
2023/04/07 02:03:36;;;;;;;47.73;23.33;;;5.80;99.90;;;;;;5160244;27;20449;-91
2023/04/07 02:06:07;;;;;;;40.07;22.30;;;5.80;99.90;;;;;;5157250;27;20452;-91
2023/04/07 02:08:36;;;;;;;41.03;21.87;;;5.80;99.90;;;;;;5156062;27;20464;-91
2023/04/07 02:11:06;;;;;;;42.23;22.97;;;5.80;99.90;;;;;;5156535;27;21016;-91
2023/04/07 02:13:35;;;;;;;48.60;24.23;;;5.80;99.90;;;;;;5157050;27;20459;-88
2023/04/07 02:16:02;;;;;;;42.30;23.17;;;5.80;99.90;;;;;;5156756;27;20453;-90
2023/04/07 02:18:31;;;;;;;45.20;24.00;;;5.80;99.90;;;;;;5157278;27;20458;-90
2023/04/07 02:20:59;;;;;;;45.70;23.77;;;5.80;99.90;;;;;;5156733;27;20934;-90
2023/04/07 02:23:27;;;;;;;43.57;23.10;;;5.80;99.90;;;;;;5156748;27;20464;-90
2023/04/07 02:25:56;;;;;;;44.83;24.57;;;5.80;99.90;;;;;;5156942;27;20463;-89
2023/04/07 02:28:23;;;;;;;43.23;23.37;;;5.80;99.90;;;;;;5157001;27;20480;-90
2023/04/07 02:30:50;;;;;;;44.73;23.77;;;5.80;99.90;;;;;;5157444;27;20449;-90
2023/04/07 02:33:17;;;;;;;44.60;24.03;;;5.90;99.90;;;;;;5156820;27;20468;-90
2023/04/07 02:35:43;;;;;;;50.50;25.17;;;5.80;99.90;;;;;;5156698;27;20540;-91
2023/04/07 02:38:10;;;;;;;46.70;24.47;;;5.80;99.90;;;;;;5156641;27;20522;-91
2023/04/07 02:40:38;;;;;;;48.57;24.50;;;5.80;99.90;;;;;;5156748;27;20460;-89
2023/04/07 02:43:05;;;;;;;49.93;24.70;;;5.80;99.90;;;;;;5156322;27;20448;-91
2023/04/07 02:45:32;;;;;;;48.27;23.60;;;5.80;99.90;;;;;;5156435;27;20469;-90
2023/04/07 02:47:58;;;;;;;46.83;23.37;;;5.80;99.90;;;;;;5156011;27;20477;-90
2023/04/07 02:50:25;;;;;;;42.43;22.60;;;5.80;99.90;;;;;;5156068;27;20459;-89
2023/04/07 02:52:52;;;;;;;43.73;22.63;;;5.80;99.90;;;;;;5156279;27;20480;-90
2023/04/07 02:55:19;;;;;;;46.23;24.90;;;5.80;99.90;;;;;;5147769;27;20652;-90
2023/04/07 02:57:47;;;;;;;45.30;24.00;;;5.80;99.90;;;;;;5156405;27;20475;-90
2023/04/07 03:00:15;;;;;;;52.63;25.30;;;5.80;99.90;;;;;;5157024;27;20454;-90
2023/04/07 03:02:42;;;;;;;45.40;22.37;;;5.80;99.90;;;;;;5161710;27;20427;-91
2023/04/07 03:05:09;;;;;;;48.70;24.60;;;5.90;99.90;;;;;;5179099;27;20433;-91
2023/04/07 03:07:36;;;;;;;41.80;23.13;;;5.90;99.90;;;;;;5174065;27;20460;-91
2023/04/07 03:10:02;;;;;;;46.20;24.20;;;5.90;99.90;;;;;;5156047;27;20445;-90
2023/04/07 03:12:29;;;;;;;43.83;22.73;;;5.90;99.90;;;;;;5156332;27;20489;-90
2023/04/07 03:14:57;;;;;;;41.40;22.40;;;5.80;99.90;;;;;;5155255;27;20464;-90
2023/04/07 03:17:24;;;;;;;43.50;23.90;;;5.90;99.90;;;;;;5156200;27;20500;-91
2023/04/07 03:19:51;;;;;;;39.73;20.90;;;5.80;99.90;;;;;;5156837;27;20448;-90
2023/04/07 03:22:18;;;;;;;33.47;20.03;;;5.80;99.90;;;;;;5155874;27;20448;-90
2023/04/07 03:24:45;;;;;;;45.60;22.47;;;5.80;99.90;;;;;;5155340;27;20445;-90
2023/04/07 03:27:11;;;;;;;46.57;24.57;;;5.80;99.90;;;;;;5155561;27;20465;-90
2023/04/07 03:29:38;;;;;;;44.17;21.77;;;5.80;99.90;;;;;;5155699;27;20453;-91
2023/04/07 03:32:06;;;;;;;44.27;22.80;;;5.90;99.90;;;;;;5155458;27;20857;-91
2023/04/07 03:34:33;;;;;;;39.83;20.57;;;5.90;99.90;;;;;;5155363;27;20442;-90
2023/04/07 03:37:00;;;;;;;44.10;23.53;;;6.00;99.90;;;;;;5155765;27;20865;-91
2023/04/07 03:39:26;;;;;;;44.67;22.07;;;5.80;99.90;;;;;;5155451;27;20445;-89
2023/04/07 03:41:53;;;;;;;43.30;20.50;;;5.80;99.90;;;;;;5155266;27;20485;-91
2023/04/07 03:44:20;;;;;;;47.30;22.00;;;5.80;99.90;;;;;;5155043;27;20935;-91
2023/04/07 03:46:47;;;;;;;40.80;21.77;;;5.80;99.90;;;;;;5155691;27;20453;-91
2023/04/07 03:49:15;;;;;;;39.70;20.63;;;5.80;99.90;;;;;;5154971;27;20464;-90
2023/04/07 03:51:42;;;;;;;38.50;21.00;;;5.80;99.90;;;;;;5165929;27;20477;-90
2023/04/07 03:54:08;;;;;;;41.80;21.27;;;5.80;99.90;;;;;;5154923;27;20453;-91
2023/04/07 03:56:36;;;;;;;40.47;21.47;;;5.90;99.90;;;;;;5154799;27;20456;-90
2023/04/07 03:59:02;;;;;;;39.97;21.53;;;5.80;99.90;;;;;;5154876;27;20539;-91
2023/04/07 04:01:30;;;;;;;39.70;20.80;;;5.80;99.90;;;;;;5154355;27;20979;-90
2023/04/07 04:03:56;;;;;;;39.33;20.03;;;5.70;99.90;;;;;;5154767;27;20448;-90
2023/04/07 04:06:25;;;;;;;37.43;20.87;;;5.70;99.90;;;;;;5154743;27;20467;-90
2023/04/07 04:08:52;;;;;;;45.70;22.20;;;5.70;99.90;;;;;;5155192;27;20479;-90
2023/04/07 04:11:18;;;;;;;43.83;21.30;;;5.70;99.90;;;;;;5155084;27;20445;-90
2023/04/07 04:13:45;;;;;;;37.57;20.77;;;5.70;99.90;;;;;;5154556;27;20471;-91
2023/04/07 04:16:12;;;;;;;40.10;19.43;;;5.70;99.90;;;;;;5154577;27;20929;-91
2023/04/07 04:18:39;;;;;;;43.37;20.57;;;5.70;99.90;;;;;;5154898;27;20476;-90
2023/04/07 04:21:06;;;;;;;42.10;21.33;;;5.70;99.90;;;;;;5154328;27;20497;-90
2023/04/07 04:23:34;;;;;;;43.10;22.23;;;5.70;99.90;;;;;;5155361;27;20486;-90
2023/04/07 04:26:02;;;;;;;38.37;21.57;;;5.70;99.90;;;;;;5154966;27;20460;-90
2023/04/07 04:28:30;;;;;;;39.17;20.50;;;5.70;99.90;;;;;;5154976;27;20563;-90
2023/04/07 04:30:56;;;;;;;38.97;19.40;;;5.70;99.90;;;;;;5155231;27;20809;-90
2023/04/07 04:33:24;;;;;;;34.93;19.67;;;5.70;99.90;;;;;;5154890;27;20521;-91
2023/04/07 04:35:51;;;;;;;34.33;19.70;;;5.70;99.90;;;;;;5154735;27;20526;-91
2023/04/07 04:38:18;;;;;;;36.83;19.77;;;5.70;99.90;;;;;;5154337;27;20483;-91
2023/04/07 04:40:46;;;;;;;32.57;19.23;;;5.70;99.90;;;;;;5154445;27;20456;-91
2023/04/07 04:43:13;;;;;;;33.67;19.43;;;5.70;99.90;;;;;;5155112;27;20451;-90
2023/04/07 04:45:39;;;;;;;37.43;18.93;;;5.70;99.90;;;;;;5154780;27;20441;-89
2023/04/07 04:48:06;;;;;;;36.70;19.67;;;5.80;99.90;;;;;;5154947;27;20476;-90
2023/04/07 04:50:33;;;;;;;37.33;18.13;;;5.80;99.90;;;;;;5154991;27;20479;-90
2023/04/07 04:53:00;;;;;;;39.67;20.00;;;5.70;99.90;;;;;;5154511;27;20488;-90
2023/04/07 04:55:26;;;;;;;35.90;18.80;;;5.60;99.90;;;;;;5154424;27;20449;-90
2023/04/07 04:57:54;;;;;;;38.57;19.93;;;5.70;99.90;;;;;;5155416;27;20468;-90
2023/04/07 05:00:21;;;;;;;31.43;17.10;;;5.70;99.90;;;;;;5155060;27;20861;-90
2023/04/07 05:02:48;;;;;;;38.00;19.90;;;5.70;99.90;;;;;;5155491;27;20441;-90
2023/04/07 05:05:15;;;;;;;36.67;19.07;;;5.70;99.90;;;;;;5154926;27;20460;-91
2023/04/07 05:07:41;;;;;;;38.90;17.70;;;5.70;99.90;;;;;;5154167;27;20972;-90
2023/04/07 05:10:09;;;;;;;34.40;18.83;;;5.70;99.90;;;;;;5154389;27;20452;-90
2023/04/07 05:12:36;;;;;;;41.20;19.80;;;5.70;99.90;;;;;;5155421;27;20509;-89
2023/04/07 05:15:05;;;;;;;33.50;18.70;;;5.70;99.90;;;;;;5155043;27;20453;-90
2023/04/07 05:17:32;;;;;;;37.07;19.10;;;5.70;99.90;;;;;;5154679;27;20529;-90
2023/04/07 05:19:58;;;;;;;36.30;19.20;;;5.70;99.90;;;;;;5154552;27;20457;-90
2023/04/07 05:22:25;;;;;;;32.00;17.63;;;5.70;99.90;;;;;;5154126;27;20810;-88
2023/04/07 05:24:52;;;;;;;32.53;16.73;;;5.70;99.90;;;;;;5154364;27;20460;-89
2023/04/07 05:27:19;;;;;;;29.90;16.80;;;5.70;99.90;;;;;;5154780;27;20479;-90
2023/04/07 05:29:45;;;;;;;30.57;17.77;;;5.70;99.90;;;;;;5156052;27;20464;-90
2023/04/07 05:32:14;;;;;;;33.77;18.83;;;5.70;99.90;;;;;;5156622;27;20479;-90
2023/04/07 05:34:41;;;;;;;35.13;17.70;;;5.70;99.90;;;;;;5155155;27;20493;-89
2023/04/07 05:37:07;;;;;;;30.87;17.10;;;5.70;99.90;;;;;;5155581;27;20467;-90
2023/04/07 05:39:34;;;;;;;32.20;17.37;;;5.70;99.90;;;;;;5158425;27;20910;-88
2023/04/07 05:42:01;;;;;;;35.03;17.07;;;5.70;99.90;;;;;;5158250;27;20455;-89
2023/04/07 05:44:28;;;;;;;30.33;17.33;;;5.70;99.90;;;;;;5158634;27;20542;-91
2023/04/07 05:46:55;;;;;;;36.10;18.43;;;5.80;99.90;;;;;;5157913;27;20490;-88
2023/04/07 05:49:23;;;;;;;33.27;17.90;;;5.80;99.90;;;;;;5159024;27;20508;-90
2023/04/07 05:51:50;;;;;;;34.90;18.13;;;5.80;99.90;;;;;;5160568;27;20486;-90
2023/04/07 05:54:16;;;;;;;30.60;16.47;;;5.80;99.90;;;;;;5157716;27;20433;-91
2023/04/07 05:56:43;;;;;;;31.77;17.50;;;5.80;99.90;;;;;;5158319;27;20444;-90
2023/04/07 05:59:10;;;;;;;32.80;17.60;;;5.80;99.90;;;;;;5158639;27;20451;-90
2023/04/07 06:01:36;;;;;;;32.50;16.00;;;5.80;99.90;;;;;;5158361;27;20452;-90
2023/04/07 06:04:03;;;;;;;34.97;16.90;;;5.80;99.90;;;;;;5172850;27;20437;-91
2023/04/07 06:06:31;;;;;;;28.20;16.47;;;5.80;99.90;;;;;;5181179;27;20467;-91
2023/04/07 06:08:58;;;;;;;36.70;18.10;;;5.80;99.90;;;;;;5167141;27;20453;-90
2023/04/07 06:11:26;;;;;;;34.03;18.23;;;5.90;99.90;;;;;;5171255;27;20949;-90
2023/04/07 06:13:52;;;;;;;38.77;19.07;;;5.80;99.90;;;;;;5157164;27;20495;-90
2023/04/07 06:16:19;;;;;;;34.53;18.03;;;5.80;99.90;;;;;;5157567;27;20847;-90
2023/04/07 06:18:46;;;;;;;32.37;17.63;;;5.80;99.90;;;;;;5156819;27;20473;-90
2023/04/07 06:21:13;;;;;;;34.70;17.63;;;5.80;99.90;;;;;;5157210;27;20521;-90
2023/04/07 06:23:41;;;;;;;34.47;17.80;;;5.80;99.90;;;;;;5156964;27;20445;-90
2023/04/07 06:26:10;;;;;;;37.57;17.37;;;5.80;99.90;;;;;;5157211;27;20607;-90
2023/04/07 06:28:37;;;;;;;36.03;17.23;;;5.80;99.90;;;;;;5156726;27;20484;-91
2023/04/07 06:31:04;;;;;;;35.17;17.60;;;5.80;99.90;;;;;;5156414;27;20745;-90
2023/04/07 06:33:31;;;;;;;31.57;17.00;;;5.80;99.90;;;;;;5156656;27;20513;-90
2023/04/07 06:35:57;;;;;;;37.20;18.57;;;5.80;99.90;;;;;;5156382;27;20449;-89
2023/04/07 06:38:24;;;;;;;35.70;17.40;;;5.80;99.90;;;;;;5156658;27;20661;-91
2023/04/07 06:40:52;;;;;;;30.80;16.23;;;5.80;99.90;;;;;;5157010;27;20449;-90
2023/04/07 06:43:19;;;;;;;32.20;16.13;;;5.70;99.90;;;;;;5157900;27;20463;-90
2023/04/07 06:45:46;;;;;;;31.70;16.40;;;5.80;99.90;;;;;;5157003;27;20475;-89
2023/04/07 06:48:12;;;;;;;33.37;16.70;;;5.80;99.90;;;;;;5156813;27;20487;-91
2023/04/07 06:50:39;;;;;;;34.73;16.57;;;5.80;99.90;;;;;;5155452;27;20468;-90
2023/04/07 06:53:06;;;;;;;30.00;15.80;;;5.80;99.90;;;;;;5155149;27;20853;-90
2023/04/07 06:55:33;;;;;;;33.30;16.70;;;5.80;99.90;;;;;;5154548;27;20453;-91
2023/04/07 06:58:01;;;;;;;31.37;16.20;;;5.80;99.90;;;;;;5155244;27;20476;-90
2023/04/07 07:00:29;;;;;;;29.60;15.70;;;5.80;99.90;;;;;;5156206;27;20445;-89
2023/04/07 07:02:56;;;;;;;31.67;16.77;;;5.80;99.90;;;;;;5155835;27;20451;-88
2023/04/07 07:05:23;;;;;;;28.73;15.10;;;5.90;99.90;;;;;;5156309;27;20546;-90
2023/04/07 07:07:50;;;;;;;33.97;16.53;;;5.80;99.90;;;;;;5155937;27;20494;-90
2023/04/07 07:10:16;;;;;;;26.90;15.93;;;5.80;99.90;;;;;;5156013;27;20463;-91
2023/04/07 07:12:43;;;;;;;27.90;15.63;;;5.80;99.90;;;;;;5155840;27;20893;-89
2023/04/07 07:15:11;;;;;;;28.40;16.30;;;5.90;99.90;;;;;;5155345;27;20476;-90
2023/04/07 07:17:38;;;;;;;25.73;15.80;;;5.90;99.90;;;;;;5155495;27;20475;-90
2023/04/07 07:20:06;;;;;;;26.30;15.70;;;5.90;99.90;;;;;;5155937;27;20440;-90
2023/04/07 07:22:33;;;;;;;27.43;15.20;;;5.90;99.90;;;;;;5155592;27;20472;-90
2023/04/07 07:24:59;;;;;;;31.80;16.90;;;5.90;99.90;;;;;;5155559;27;20456;-90
2023/04/07 07:27:26;;;;;;;31.00;15.90;;;5.90;99.90;;;;;;5155359;27;20892;-90
2023/04/07 07:29:53;;;;;;;31.00;16.77;;;5.90;99.90;;;;;;5155770;27;20950;-90
2023/04/07 07:32:21;;;;;;;27.60;15.33;;;6.00;99.90;;;;;;5155301;27;20449;-90
2023/04/07 07:34:47;;;;;;;26.03;14.30;;;5.90;99.90;;;;;;5155573;27;20439;-90
2023/04/07 07:37:14;;;;;;;26.17;15.23;;;6.00;99.90;;;;;;5155203;27;20810;-90
2023/04/07 07:39:41;;;;;;;31.90;15.87;;;6.00;99.90;;;;;;5156147;27;20449;-90
2023/04/07 07:42:08;;;;;;;29.83;16.50;;;6.00;99.90;;;;;;5155210;27;20448;-90
2023/04/07 07:44:34;;;;;;;28.40;15.70;;;6.00;99.90;;;;;;5155903;27;20445;-90
2023/04/07 07:47:01;;;;;;;30.07;16.30;;;6.00;99.90;;;;;;5155335;27;20568;-90
2023/04/07 07:49:29;;;;;;;27.50;16.13;;;6.00;99.90;;;;;;5155257;27;20611;-90
2023/04/07 07:51:56;;;;;;;26.77;15.43;;;6.00;99.90;;;;;;5155216;27;20471;-88
2023/04/07 07:54:22;;;;;;;38.07;17.87;;;6.00;99.90;;;;;;5154287;27;20484;-90
2023/04/07 07:56:49;;;;;;;27.77;17.00;;;6.10;99.90;;;;;;5156295;27;20796;-90
2023/04/07 07:59:16;;;;;;;26.97;14.53;;;6.10;99.90;;;;;;5155335;27;20457;-90
2023/04/07 08:01:43;;;;;;;28.23;15.67;;;6.10;99.90;;;;;;5155057;27;20745;-90
2023/04/07 08:04:10;;;;;;;30.20;15.80;;;6.10;99.90;;;;;;5155290;27;20499;-90
2023/04/07 08:06:38;;;;;;;33.70;16.43;;;6.10;99.90;;;;;;5155138;27;20696;-90
2023/04/07 08:09:05;;;;;;;27.10;15.13;;;6.10;99.90;;;;;;5155246;27;20945;-90
2023/04/07 08:11:31;;;;;;;26.50;15.30;;;6.10;99.90;;;;;;5155898;27;20760;-90
2023/04/07 08:13:58;;;;;;;30.73;15.43;;;6.10;99.90;;;;;;5155543;27;20505;-89
2023/04/07 08:16:25;;;;;;;22.43;13.40;;;6.10;99.90;;;;;;5156407;27;20950;-90
2023/04/07 08:18:52;;;;;;;26.90;14.10;;;6.10;99.90;;;;;;5156779;27;20474;-90
2023/04/07 08:21:19;;;;;;;25.07;13.87;;;6.20;99.90;;;;;;5157112;27;20452;-90
2023/04/07 08:23:48;;;;;;;24.50;14.70;;;6.20;99.90;;;;;;5156143;27;20473;-90
2023/04/07 08:26:14;;;;;;;24.53;14.67;;;6.20;99.90;;;;;;5159209;27;20444;-90
2023/04/07 08:28:41;;;;;;;24.97;14.83;;;6.30;99.90;;;;;;5159698;27;20500;-90
2023/04/07 08:31:08;;;;;;;31.50;15.40;;;6.30;99.90;;;;;;5157214;27;20452;-92
2023/04/07 08:33:34;;;;;;;22.80;13.43;;;6.30;99.90;;;;;;5157163;27;20483;-89
2023/04/07 08:36:01;;;;;;;28.80;14.90;;;6.30;99.90;;;;;;5155455;27;20449;-91
2023/04/07 08:38:28;;;;;;;29.20;15.17;;;6.30;99.90;;;;;;5155953;27;20473;-91
2023/04/07 08:41:07;;;;;;;28.33;14.73;;;6.30;99.90;;;;;;5155833;27;20858;-91
2023/04/07 08:43:36;;;;;;;25.30;14.60;;;6.40;99.90;;;;;;5149025;27;20449;-90
2023/04/07 08:46:03;;;;;;;25.10;14.03;;;6.40;99.90;;;;;;5155613;27;20472;-91
2023/04/07 08:48:32;;;;;;;24.33;14.53;;;6.40;99.90;;;;;;5155540;27;20911;-91
2023/04/07 08:51:04;;;;;;;24.07;14.00;;;6.40;99.90;;;;;;5154974;27;20454;-89
2023/04/07 08:53:37;;;;;;;24.60;14.30;;;6.40;99.90;;;;;;5154433;27;20484;-90
2023/04/07 08:56:06;;;;;;;26.10;13.20;;;6.50;99.90;;;;;;5154820;27;20440;-90
2023/04/07 08:58:33;;;;;;;22.20;13.53;;;6.50;99.90;;;;;;5155847;27;20471;-90
2023/04/07 09:01:00;;;;;;;19.47;12.37;;;6.50;99.90;;;;;;5158450;27;20452;-91
2023/04/07 09:03:27;;;;;;;21.00;13.07;;;6.50;99.90;;;;;;5171029;27;20480;-91
2023/04/07 09:05:55;;;;;;;20.27;12.80;;;6.50;99.90;;;;;;5178567;27;20429;-92
2023/04/07 09:08:22;;;;;;;21.67;13.27;;;6.50;99.90;;;;;;5165881;27;20465;-91
2023/04/07 09:10:48;;;;;;;26.43;14.00;;;6.50;99.90;;;;;;5159373;27;20950;-91
2023/04/07 09:13:17;;;;;;;21.87;13.03;;;6.50;99.90;;;;;;5159200;27;20899;-91
2023/04/07 09:15:43;;;;;;;19.63;12.50;;;6.50;99.90;;;;;;5162091;27;20859;-91
2023/04/07 09:18:10;;;;;;;21.33;11.73;;;6.50;99.90;;;;;;5159643;27;20517;-92
2023/04/07 09:20:56;;;;;;;20.90;13.30;;;6.60;99.90;;;;;;5159731;27;20462;-91
2023/04/07 09:23:30;;;;;;;19.47;12.67;;;6.60;99.90;;;;;;5149966;27;20534;-91
2023/04/07 09:26:00;;;;;;;21.90;13.13;;;6.60;99.90;;;;;;5159940;27;20457;-90
2023/04/07 09:28:39;;;;;;;24.00;13.90;;;6.70;99.90;;;;;;5158216;27;20483;-91
2023/04/07 09:31:05;;;;;;;22.87;13.90;;;6.70;99.90;;;;;;5160022;27;20446;-91
2023/04/07 09:33:34;;;;;;;21.60;13.10;;;6.70;99.90;;;;;;5158507;27;20532;-92
2023/04/07 09:36:01;;;;;;;21.70;13.03;;;6.70;99.90;;;;;;5158973;27;20966;-92
2023/04/07 09:38:33;;;;;;;22.67;13.30;;;6.70;99.90;;;;;;5158815;27;20814;-91
2023/04/07 09:41:07;;;;;;;19.53;12.10;;;6.70;99.90;;;;;;5158156;27;20448;-91
2023/04/07 09:43:37;;;;;;;21.70;13.23;;;6.80;99.90;;;;;;5158220;27;20513;-91
2023/04/07 09:46:08;;;;;;;22.93;12.93;;;6.80;99.90;;;;;;5158675;27;20508;-91
2023/04/07 09:48:35;;;;;;;20.20;13.03;;;6.80;99.90;;;;;;5158124;27;20468;-91
2023/04/07 09:51:06;;;;;;;24.17;13.90;;;6.80;99.90;;;;;;5157495;27;20499;-91
2023/04/07 09:53:42;;;;;;;16.60;11.83;;;6.90;99.90;;;;;;5157870;27;20580;-91
2023/04/07 09:56:10;;;;;;;20.37;13.00;;;6.90;99.90;;;;;;5157843;27;20464;-91
2023/04/07 09:58:39;;;;;;;17.77;11.33;;;6.90;99.90;;;;;;5158298;27;20496;-92
2023/04/07 10:01:08;;;;;;;17.17;11.07;;;6.90;99.90;;;;;;5158208;27;20488;-91
2023/04/07 10:03:35;;;;;;;15.60;10.83;;;6.90;99.90;;;;;;5159181;27;20452;-91
2023/04/07 10:06:02;;;;;;;17.53;12.07;;;6.90;99.90;;;;;;5158215;27;20461;-91
2023/04/07 10:08:29;;;;;;;18.10;10.83;;;6.90;99.90;;;;;;5158440;27;20837;-91
2023/04/07 10:10:56;;;;;;;15.07;10.93;;;6.90;99.90;;;;;;5157850;27;20449;-91
2023/04/07 10:13:24;;;;;;;18.10;11.60;;;7.00;99.90;;;;;;5150027;27;20884;-91
2023/04/07 10:15:52;;;;;;;17.10;11.33;;;7.00;99.90;;;;;;5158189;27;20484;-90
2023/04/07 10:18:21;;;;;;;16.07;11.30;;;7.00;99.90;;;;;;5158632;27;20493;-91
2023/04/07 10:20:50;;;;;;;17.30;11.27;;;7.10;99.90;;;;;;5159786;27;20998;-91
2023/04/07 10:23:28;;;;;;;16.00;10.77;;;7.10;99.90;;;;;;5159084;27;20445;-91
2023/04/07 10:25:57;;;;;;;19.67;11.77;;;7.10;99.90;;;;;;5158847;27;20464;-91
2023/04/07 10:28:26;;;;;;;19.10;11.77;;;7.20;99.90;;;;;;5158322;27;20454;-91
2023/04/07 10:30:55;;;;;;;16.90;11.80;;;7.20;99.90;;;;;;5158861;27;20535;-91
2023/04/07 10:33:44;;;;;;;19.00;11.50;;;7.20;99.90;;;;;;5157908;27;20862;-92
2023/04/07 10:36:11;;;;;;;17.33;11.10;;;7.20;99.90;;;;;;5158483;27;20451;-92
2023/04/07 10:38:37;;;;;;;21.30;12.20;;;7.30;99.90;;;;;;5158033;27;20856;-92
2023/04/07 10:41:31;;;;;;;14.30;10.50;;;7.30;99.90;;;;;;5157571;27;20448;-91
2023/04/07 10:43:58;;;;;;;14.97;10.43;;;7.40;99.90;;;;;;5158536;27;20471;-90
2023/04/07 10:46:45;;;;;;;18.10;10.27;;;7.40;99.90;;;;;;5158772;27;20501;-89
2023/04/07 10:49:13;;;;;;;14.30;9.87;;;7.30;99.90;;;;;;5158457;27;20487;-91
2023/04/07 10:51:40;;;;;;;20.50;10.60;;;7.30;99.90;;;;;;5157418;27;20467;-91
2023/04/07 10:54:16;;;;;;;15.07;10.40;;;7.30;99.90;;;;;;5157280;27;20553;-91
2023/04/07 10:57:10;;;;;;;19.37;11.63;;;7.30;99.90;;;;;;5157606;27;20520;-92
2023/04/07 10:59:38;;;;;;;18.70;11.27;;;7.30;99.90;;;;;;5150293;27;20474;-92
2023/04/07 11:02:35;;;;;;;15.53;10.47;;;7.40;99.90;;;;;;5157060;27;20453;-91
2023/04/07 11:05:02;;;;;;;15.70;11.20;;;7.30;99.90;;;;;;5156609;27;20790;-91
2023/04/07 11:07:50;;;;;;;14.63;10.03;;;7.30;99.90;;;;;;5158906;27;20561;-91
2023/04/07 11:10:18;;;;;;;16.40;10.83;;;7.30;99.90;;;;;;5158203;27;20504;-91
2023/04/07 11:12:57;;;;;;;16.27;10.53;;;7.40;99.90;;;;;;5156702;27;20467;-92
2023/04/07 11:15:24;;;;;;;14.90;10.00;;;7.30;99.90;;;;;;5158785;27;20489;-90
2023/04/07 11:18:08;;;;;;;15.10;9.30;;;7.40;99.90;;;;;;5158474;27;20477;-91
2023/04/07 11:20:42;;;;;;;12.43;9.30;;;7.40;99.90;;;;;;5152609;27;20450;-92
2023/04/07 11:23:09;;;;;;;15.80;10.40;;;7.40;99.90;;;;;;5157199;27;20453;-91
2023/04/07 11:25:36;;;;;;;15.90;10.87;;;7.40;99.90;;;;;;5159880;27;20467;-91
2023/04/07 11:28:04;;;;;;;15.73;10.17;;;7.40;99.90;;;;;;5159380;27;20507;-90
2023/04/07 11:30:31;;;;;;;16.50;10.83;;;7.40;99.90;;;;;;5157403;27;20505;-90
2023/04/07 11:32:57;;;;;;;19.23;10.93;;;7.40;99.90;;;;;;5157391;27;20852;-90
2023/04/07 11:35:26;;;;;;;17.50;10.93;;;7.40;99.90;;;;;;5147129;27;20488;-90
2023/04/07 11:37:58;;;;;;;14.77;9.73;;;7.50;99.90;;;;;;5159043;27;20984;-90
2023/04/07 11:40:33;;;;;;;10.73;8.90;;;7.50;99.90;;;;;;5149631;27;20458;-90
2023/04/07 11:43:00;;;;;;;15.33;9.37;;;7.50;99.90;;;;;;5156451;27;20516;-90
2023/04/07 11:45:26;;;;;;;13.80;9.90;;;7.50;99.90;;;;;;5160007;27;20462;-91
2023/04/07 11:47:53;;;;;;;12.90;9.10;;;7.60;99.90;;;;;;5155135;27;20475;-90
2023/04/07 11:50:40;;;;;;;13.53;10.07;;;7.60;99.90;;;;;;5156064;27;20512;-90
2023/04/07 11:53:07;;;;;;;12.37;9.73;;;7.60;99.90;;;;;;5154258;27;20954;-91
2023/04/07 11:55:34;;;;;;;15.47;10.00;;;7.60;99.90;;;;;;5157430;27;20505;-91
2023/04/07 11:58:08;;;;;;;13.27;9.17;;;7.60;99.90;;;;;;5158925;27;20993;-90
2023/04/07 12:00:35;;;;;;;12.50;10.00;;;7.60;99.90;;;;;;5168380;27;20613;-91
2023/04/07 12:03:10;;;;;;;15.10;9.37;;;7.60;99.90;;;;;;5179491;27;20433;-90
2023/04/07 12:05:44;;;;;;;13.33;9.33;;;7.70;99.90;;;;;;5168181;27;20489;-90
2023/04/07 12:08:10;;;;;;;12.70;9.10;;;7.70;99.90;;;;;;5155532;27;20452;-90
2023/04/07 12:10:39;;;;;;;15.07;9.63;;;7.80;99.90;;;;;;5154872;27;20452;-90
2023/04/07 12:13:07;;;;;;;13.50;9.50;;;7.90;99.90;;;;;;5155143;27;20478;-89
2023/04/07 12:15:34;;;;;;;12.43;9.50;;;7.90;99.90;;;;;;5155664;27;20554;-89
2023/04/07 12:18:01;;;;;;;14.20;9.87;;;7.90;99.90;;;;;;5156645;27;20480;-90
2023/04/07 12:20:28;;;;;;;10.00;8.03;;;8.00;99.90;;;;;;5156638;27;20952;-90
2023/04/07 12:22:56;;;;;;;12.10;9.00;;;8.10;99.90;;;;;;5159311;27;20457;-90
2023/04/07 12:25:23;;;;;;;10.73;8.37;;;8.10;99.90;;;;;;5149096;27;20474;-89
2023/04/07 12:27:50;;;;;;;9.90;7.67;;;8.10;99.90;;;;;;5157472;27;20456;-90
2023/04/07 12:30:17;;;;;;;11.53;8.93;;;8.10;99.90;;;;;;5157619;27;20516;-90
2023/04/07 12:32:43;;;;;;;10.30;7.57;;;8.10;99.90;;;;;;5159193;27;20449;-90
2023/04/07 12:35:10;;;;;;;8.53;6.50;;;8.20;99.90;;;;;;5157400;27;20492;-91
2023/04/07 12:37:37;;;;;;;9.20;7.47;;;8.20;99.90;;;;;;5156681;27;20879;-91
2023/04/07 12:40:06;;;;;;;7.40;6.50;;;8.30;99.90;;;;;;5155807;27;20440;-90
2023/04/07 12:42:33;;;;;;;8.93;7.50;;;8.30;99.90;;;;;;5156222;27;20451;-91
2023/04/07 12:45:00;;;;;;;9.70;7.67;;;8.30;99.90;;;;;;5155753;27;20452;-89
2023/04/07 12:47:26;;;;;;;8.53;7.17;;;8.40;99.90;;;;;;5155561;27;20537;-90
2023/04/07 12:49:53;;;;;;;7.50;5.70;;;8.50;99.90;;;;;;5156752;27;20453;-91